sensor_id;sensor_type;location;lat;lon;timestamp;temperature;humidity
21445;DHT22;10883;51.946;20.140;2022-12-29T00:02:13;5.40;99.90
21445;DHT22;10883;51.946;20.140;2022-12-29T00:04:39;5.40;99.90
21445;DHT22;10883;51.946;20.140;2022-12-29T00:07:06;5.40;99.90
21445;DHT22;10883;51.946;20.140;2022-12-29T00:09:32;5.40;99.90
21445;DHT22;10883;51.946;20.140;2022-12-29T00:11:59;5.40;99.90
21445;DHT22;10883;51.946;20.140;2022-12-29T00:14:26;5.40;99.90
21445;DHT22;10883;51.946;20.140;2022-12-29T00:17:10;5.40;99.90
21445;DHT22;10883;51.946;20.140;2022-12-29T00:19:36;5.40;99.90
21445;DHT22;10883;51.946;20.140;2022-12-29T00:22:20;5.30;99.90
21445;DHT22;10883;51.946;20.140;2022-12-29T00:25:07;5.30;99.90
21445;DHT22;10883;51.946;20.140;2022-12-29T00:27:52;5.30;99.90
21445;DHT22;10883;51.946;20.140;2022-12-29T00:30:36;5.40;99.90
21445;DHT22;10883;51.946;20.140;2022-12-29T00:33:22;5.30;99.90
21445;DHT22;10883;51.946;20.140;2022-12-29T00:36:16;5.30;99.90
21445;DHT22;10883;51.946;20.140;2022-12-29T00:38:48;5.30;99.90
21445;DHT22;10883;51.946;20.140;2022-12-29T00:41:33;5.20;99.90
21445;DHT22;10883;51.946;20.140;2022-12-29T00:44:17;5.30;99.90
21445;DHT22;10883;51.946;20.140;2022-12-29T00:46:43;5.30;99.90
21445;DHT22;10883;51.946;20.140;2022-12-29T00:49:11;5.30;99.90
21445;DHT22;10883;51.946;20.140;2022-12-29T00:52:04;5.30;99.90
21445;DHT22;10883;51.946;20.140;2022-12-29T00:54:32;5.20;99.90
21445;DHT22;10883;51.946;20.140;2022-12-29T00:56:59;5.20;99.90
21445;DHT22;10883;51.946;20.140;2022-12-29T00:59:25;5.30;99.90
21445;DHT22;10883;51.946;20.140;2022-12-29T01:01:52;5.20;99.90
21445;DHT22;10883;51.946;20.140;2022-12-29T01:04:19;5.30;99.90
21445;DHT22;10883;51.946;20.140;2022-12-29T01:06:45;5.30;99.90
21445;DHT22;10883;51.946;20.140;2022-12-29T01:09:11;5.30;99.90
21445;DHT22;10883;51.946;20.140;2022-12-29T01:11:56;5.30;99.90
21445;DHT22;10883;51.946;20.140;2022-12-29T01:14:22;5.30;99.90
21445;DHT22;10883;51.946;20.140;2022-12-29T01:16:48;5.30;99.90
21445;DHT22;10883;51.946;20.140;2022-12-29T01:19:15;5.30;99.90
21445;DHT22;10883;51.946;20.140;2022-12-29T01:21:41;5.30;99.90
21445;DHT22;10883;51.946;20.140;2022-12-29T01:24:07;5.30;99.90
21445;DHT22;10883;51.946;20.140;2022-12-29T01:26:33;5.30;99.90
21445;DHT22;10883;51.946;20.140;2022-12-29T01:28:59;5.30;99.90
21445;DHT22;10883;51.946;20.140;2022-12-29T01:31:25;5.30;99.90
21445;DHT22;10883;51.946;20.140;2022-12-29T01:33:53;5.30;99.90
21445;DHT22;10883;51.946;20.140;2022-12-29T01:36:19;5.30;99.90
21445;DHT22;10883;51.946;20.140;2022-12-29T01:38:46;5.40;99.90
21445;DHT22;10883;51.946;20.140;2022-12-29T01:41:14;5.40;99.90
21445;DHT22;10883;51.946;20.140;2022-12-29T01:43:45;5.40;99.90
21445;DHT22;10883;51.946;20.140;2022-12-29T01:49:23;5.40;99.90
21445;DHT22;10883;51.946;20.140;2022-12-29T01:52:07;5.40;99.90
21445;DHT22;10883;51.946;20.140;2022-12-29T01:54:46;5.40;99.90
21445;DHT22;10883;51.946;20.140;2022-12-29T01:57:18;5.40;99.90
21445;DHT22;10883;51.946;20.140;2022-12-29T02:00:12;5.40;99.90
21445;DHT22;10883;51.946;20.140;2022-12-29T02:02:34;5.50;99.90
21445;DHT22;10883;51.946;20.140;2022-12-29T02:05:07;5.40;99.90
21445;DHT22;10883;51.946;20.140;2022-12-29T02:07:34;5.40;99.90
21445;DHT22;10883;51.946;20.140;2022-12-29T02:10:02;5.40;99.90
21445;DHT22;10883;51.946;20.140;2022-12-29T02:12:28;5.50;99.90
21445;DHT22;10883;51.946;20.140;2022-12-29T02:14:57;5.50;99.90
21445;DHT22;10883;51.946;20.140;2022-12-29T02:20:11;5.50;99.90
21445;DHT22;10883;51.946;20.140;2022-12-29T02:23:19;5.50;99.90
21445;DHT22;10883;51.946;20.140;2022-12-29T02:26:09;5.50;99.90
21445;DHT22;10883;51.946;20.140;2022-12-29T02:31:36;5.50;99.90
21445;DHT22;10883;51.946;20.140;2022-12-29T02:39:21;5.60;99.90
21445;DHT22;10883;51.946;20.140;2022-12-29T02:42:10;5.60;99.90
21445;DHT22;10883;51.946;20.140;2022-12-29T02:44:58;5.60;99.90
21445;DHT22;10883;51.946;20.140;2022-12-29T02:52:35;5.50;99.90
21445;DHT22;10883;51.946;20.140;2022-12-29T02:55:02;5.50;99.90
21445;DHT22;10883;51.946;20.140;2022-12-29T02:57:34;5.50;99.90
21445;DHT22;10883;51.946;20.140;2022-12-29T03:00:09;5.50;99.90
21445;DHT22;10883;51.946;20.140;2022-12-29T03:21:33;5.30;99.90
21445;DHT22;10883;51.946;20.140;2022-12-29T03:24:21;5.40;99.90
21445;DHT22;10883;51.946;20.140;2022-12-29T03:26:49;5.40;99.90
21445;DHT22;10883;51.946;20.140;2022-12-29T03:29:17;5.30;99.90
21445;DHT22;10883;51.946;20.140;2022-12-29T03:31:44;5.40;99.90
21445;DHT22;10883;51.946;20.140;2022-12-29T03:34:12;5.40;99.90
21445;DHT22;10883;51.946;20.140;2022-12-29T03:36:51;5.40;99.90
21445;DHT22;10883;51.946;20.140;2022-12-29T03:39:19;5.40;99.90
21445;DHT22;10883;51.946;20.140;2022-12-29T03:41:46;5.40;99.90
21445;DHT22;10883;51.946;20.140;2022-12-29T03:44:15;5.40;99.90
21445;DHT22;10883;51.946;20.140;2022-12-29T03:46:41;5.40;99.90
21445;DHT22;10883;51.946;20.140;2022-12-29T03:49:07;5.40;99.90
21445;DHT22;10883;51.946;20.140;2022-12-29T03:51:33;5.30;99.90
21445;DHT22;10883;51.946;20.140;2022-12-29T03:53:59;5.30;99.90
21445;DHT22;10883;51.946;20.140;2022-12-29T03:56:25;5.30;99.90
21445;DHT22;10883;51.946;20.140;2022-12-29T03:58:50;5.30;99.90
21445;DHT22;10883;51.946;20.140;2022-12-29T04:01:16;5.20;99.90
21445;DHT22;10883;51.946;20.140;2022-12-29T04:03:42;5.30;99.90
21445;DHT22;10883;51.946;20.140;2022-12-29T04:06:08;5.20;99.90
21445;DHT22;10883;51.946;20.140;2022-12-29T04:08:34;5.20;99.90
21445;DHT22;10883;51.946;20.140;2022-12-29T04:10:59;5.20;99.90
21445;DHT22;10883;51.946;20.140;2022-12-29T04:13:25;5.20;99.90
21445;DHT22;10883;51.946;20.140;2022-12-29T04:15:51;5.20;99.90
21445;DHT22;10883;51.946;20.140;2022-12-29T04:18:16;5.20;99.90
21445;DHT22;10883;51.946;20.140;2022-12-29T04:20:44;5.20;99.90
21445;DHT22;10883;51.946;20.140;2022-12-29T04:23:25;5.20;99.90
21445;DHT22;10883;51.946;20.140;2022-12-29T04:25:51;5.20;99.90
21445;DHT22;10883;51.946;20.140;2022-12-29T04:28:17;5.20;99.90
21445;DHT22;10883;51.946;20.140;2022-12-29T04:30:43;5.20;99.90
21445;DHT22;10883;51.946;20.140;2022-12-29T04:33:09;5.20;99.90
21445;DHT22;10883;51.946;20.140;2022-12-29T04:35:35;5.20;99.90
21445;DHT22;10883;51.946;20.140;2022-12-29T04:38:00;5.10;99.90
21445;DHT22;10883;51.946;20.140;2022-12-29T04:40:26;5.10;99.90
21445;DHT22;10883;51.946;20.140;2022-12-29T04:42:52;5.10;99.90
21445;DHT22;10883;51.946;20.140;2022-12-29T04:45:18;5.20;99.90
21445;DHT22;10883;51.946;20.140;2022-12-29T04:47:43;5.10;99.90
21445;DHT22;10883;51.946;20.140;2022-12-29T04:50:09;5.10;99.90
21445;DHT22;10883;51.946;20.140;2022-12-29T04:52:35;5.10;99.90
21445;DHT22;10883;51.946;20.140;2022-12-29T04:55:01;5.10;99.90
21445;DHT22;10883;51.946;20.140;2022-12-29T04:57:27;5.10;99.90
21445;DHT22;10883;51.946;20.140;2022-12-29T04:59:53;5.10;99.90
21445;DHT22;10883;51.946;20.140;2022-12-29T05:02:19;5.10;99.90
21445;DHT22;10883;51.946;20.140;2022-12-29T05:04:44;5.10;99.90
21445;DHT22;10883;51.946;20.140;2022-12-29T05:07:11;5.10;99.90
21445;DHT22;10883;51.946;20.140;2022-12-29T05:09:37;5.20;99.90
21445;DHT22;10883;51.946;20.140;2022-12-29T05:12:03;5.20;99.90
21445;DHT22;10883;51.946;20.140;2022-12-29T05:14:28;5.20;99.90
21445;DHT22;10883;51.946;20.140;2022-12-29T05:16:54;5.20;99.90
21445;DHT22;10883;51.946;20.140;2022-12-29T05:19:20;5.20;99.90
21445;DHT22;10883;51.946;20.140;2022-12-29T05:21:46;5.20;99.90
21445;DHT22;10883;51.946;20.140;2022-12-29T05:24:11;5.10;99.90
21445;DHT22;10883;51.946;20.140;2022-12-29T05:26:37;5.10;99.90
21445;DHT22;10883;51.946;20.140;2022-12-29T05:29:03;5.10;99.90
21445;DHT22;10883;51.946;20.140;2022-12-29T05:31:29;5.10;99.90
21445;DHT22;10883;51.946;20.140;2022-12-29T05:33:54;5.20;99.90
21445;DHT22;10883;51.946;20.140;2022-12-29T05:36:20;5.20;99.90
21445;DHT22;10883;51.946;20.140;2022-12-29T05:38:46;5.20;99.90
21445;DHT22;10883;51.946;20.140;2022-12-29T05:41:12;5.20;99.90
21445;DHT22;10883;51.946;20.140;2022-12-29T05:43:38;5.20;99.90
21445;DHT22;10883;51.946;20.140;2022-12-29T05:46:03;5.30;99.90
21445;DHT22;10883;51.946;20.140;2022-12-29T05:48:29;5.30;99.90
21445;DHT22;10883;51.946;20.140;2022-12-29T05:50:55;5.30;99.90
21445;DHT22;10883;51.946;20.140;2022-12-29T05:53:21;5.40;99.90
21445;DHT22;10883;51.946;20.140;2022-12-29T05:55:47;5.40;99.90
21445;DHT22;10883;51.946;20.140;2022-12-29T05:58:13;5.40;99.90
21445;DHT22;10883;51.946;20.140;2022-12-29T06:00:40;5.40;99.90
21445;DHT22;10883;51.946;20.140;2022-12-29T06:03:05;5.40;99.90
21445;DHT22;10883;51.946;20.140;2022-12-29T06:05:31;5.50;99.90
21445;DHT22;10883;51.946;20.140;2022-12-29T06:07:57;5.50;99.90
21445;DHT22;10883;51.946;20.140;2022-12-29T06:10:23;5.50;99.90
21445;DHT22;10883;51.946;20.140;2022-12-29T06:12:48;5.50;99.90
21445;DHT22;10883;51.946;20.140;2022-12-29T06:15:14;5.50;99.90
21445;DHT22;10883;51.946;20.140;2022-12-29T06:17:40;5.40;99.90
21445;DHT22;10883;51.946;20.140;2022-12-29T06:20:07;5.40;99.90
21445;DHT22;10883;51.946;20.140;2022-12-29T06:22:33;5.40;99.90
21445;DHT22;10883;51.946;20.140;2022-12-29T06:24:59;5.40;99.90
21445;DHT22;10883;51.946;20.140;2022-12-29T06:27:25;5.40;99.90
21445;DHT22;10883;51.946;20.140;2022-12-29T06:29:51;5.50;99.90
21445;DHT22;10883;51.946;20.140;2022-12-29T06:32:16;5.50;99.90
21445;DHT22;10883;51.946;20.140;2022-12-29T06:34:42;5.50;99.90
21445;DHT22;10883;51.946;20.140;2022-12-29T06:37:10;5.50;99.90
21445;DHT22;10883;51.946;20.140;2022-12-29T06:39:36;5.60;99.90
21445;DHT22;10883;51.946;20.140;2022-12-29T06:42:02;5.50;99.90
21445;DHT22;10883;51.946;20.140;2022-12-29T06:44:28;5.60;99.90
21445;DHT22;10883;51.946;20.140;2022-12-29T06:46:54;5.60;99.90
21445;DHT22;10883;51.946;20.140;2022-12-29T06:49:19;5.60;99.90
21445;DHT22;10883;51.946;20.140;2022-12-29T06:51:46;5.70;99.90
21445;DHT22;10883;51.946;20.140;2022-12-29T06:54:12;5.70;99.90
21445;DHT22;10883;51.946;20.140;2022-12-29T06:56:38;5.70;99.90
21445;DHT22;10883;51.946;20.140;2022-12-29T06:59:03;5.70;99.90
21445;DHT22;10883;51.946;20.140;2022-12-29T07:01:30;5.80;99.90
21445;DHT22;10883;51.946;20.140;2022-12-29T07:03:56;5.90;99.90
21445;DHT22;10883;51.946;20.140;2022-12-29T07:06:21;5.90;99.90
21445;DHT22;10883;51.946;20.140;2022-12-29T07:08:47;6.00;99.90
21445;DHT22;10883;51.946;20.140;2022-12-29T07:11:13;6.00;99.90
21445;DHT22;10883;51.946;20.140;2022-12-29T07:13:39;6.00;99.90
21445;DHT22;10883;51.946;20.140;2022-12-29T07:16:08;6.10;99.90
21445;DHT22;10883;51.946;20.140;2022-12-29T07:18:35;6.10;99.90
21445;DHT22;10883;51.946;20.140;2022-12-29T07:21:01;6.20;99.90
21445;DHT22;10883;51.946;20.140;2022-12-29T07:23:27;6.20;99.90
21445;DHT22;10883;51.946;20.140;2022-12-29T07:26:07;6.20;99.90
21445;DHT22;10883;51.946;20.140;2022-12-29T07:28:36;6.30;99.90
21445;DHT22;10883;51.946;20.140;2022-12-29T07:31:04;6.40;99.90
21445;DHT22;10883;51.946;20.140;2022-12-29T07:33:30;6.50;99.90
21445;DHT22;10883;51.946;20.140;2022-12-29T07:35:56;6.50;99.90
21445;DHT22;10883;51.946;20.140;2022-12-29T07:38:22;6.50;99.90
21445;DHT22;10883;51.946;20.140;2022-12-29T07:40:48;6.60;99.90
21445;DHT22;10883;51.946;20.140;2022-12-29T07:43:14;6.50;99.90
21445;DHT22;10883;51.946;20.140;2022-12-29T07:45:40;6.50;99.90
21445;DHT22;10883;51.946;20.140;2022-12-29T07:48:06;6.40;99.90
21445;DHT22;10883;51.946;20.140;2022-12-29T07:50:35;6.40;99.90
21445;DHT22;10883;51.946;20.140;2022-12-29T07:53:02;6.40;99.90
21445;DHT22;10883;51.946;20.140;2022-12-29T07:55:28;6.40;99.90
21445;DHT22;10883;51.946;20.140;2022-12-29T07:57:55;6.30;99.90
21445;DHT22;10883;51.946;20.140;2022-12-29T08:00:21;6.40;99.90
21445;DHT22;10883;51.946;20.140;2022-12-29T08:02:47;6.30;99.90
21445;DHT22;10883;51.946;20.140;2022-12-29T08:05:13;6.30;99.90
21445;DHT22;10883;51.946;20.140;2022-12-29T08:07:39;6.40;99.90
21445;DHT22;10883;51.946;20.140;2022-12-29T08:10:05;6.40;99.90
21445;DHT22;10883;51.946;20.140;2022-12-29T08:12:31;6.40;99.90
21445;DHT22;10883;51.946;20.140;2022-12-29T08:14:57;6.40;99.90
21445;DHT22;10883;51.946;20.140;2022-12-29T08:17:22;6.50;99.90
21445;DHT22;10883;51.946;20.140;2022-12-29T08:19:48;6.50;99.90
21445;DHT22;10883;51.946;20.140;2022-12-29T08:22:14;6.50;99.90
21445;DHT22;10883;51.946;20.140;2022-12-29T08:24:40;6.60;99.90
21445;DHT22;10883;51.946;20.140;2022-12-29T08:27:06;6.60;99.90
21445;DHT22;10883;51.946;20.140;2022-12-29T08:29:32;6.60;99.90
21445;DHT22;10883;51.946;20.140;2022-12-29T08:31:58;6.60;99.90
21445;DHT22;10883;51.946;20.140;2022-12-29T08:34:23;6.60;99.90
21445;DHT22;10883;51.946;20.140;2022-12-29T08:36:49;6.70;99.90
21445;DHT22;10883;51.946;20.140;2022-12-29T08:39:15;6.80;99.90
21445;DHT22;10883;51.946;20.140;2022-12-29T08:41:41;6.80;99.90
21445;DHT22;10883;51.946;20.140;2022-12-29T08:44:07;6.80;99.90
21445;DHT22;10883;51.946;20.140;2022-12-29T08:46:33;6.80;99.90
21445;DHT22;10883;51.946;20.140;2022-12-29T08:48:58;6.90;99.90
21445;DHT22;10883;51.946;20.140;2022-12-29T08:51:24;6.90;99.90
21445;DHT22;10883;51.946;20.140;2022-12-29T08:53:50;6.90;99.90
21445;DHT22;10883;51.946;20.140;2022-12-29T08:56:16;6.90;99.90
21445;DHT22;10883;51.946;20.140;2022-12-29T08:58:42;6.90;99.90
21445;DHT22;10883;51.946;20.140;2022-12-29T09:01:08;6.90;99.90
21445;DHT22;10883;51.946;20.140;2022-12-29T09:03:34;6.90;99.90
21445;DHT22;10883;51.946;20.140;2022-12-29T09:06:00;6.90;99.90
21445;DHT22;10883;51.946;20.140;2022-12-29T09:08:26;7.00;99.90
21445;DHT22;10883;51.946;20.140;2022-12-29T09:10:52;7.00;99.90
21445;DHT22;10883;51.946;20.140;2022-12-29T09:13:18;7.10;99.90
21445;DHT22;10883;51.946;20.140;2022-12-29T09:15:44;7.20;99.90
21445;DHT22;10883;51.946;20.140;2022-12-29T09:18:11;7.20;99.90
21445;DHT22;10883;51.946;20.140;2022-12-29T09:20:37;7.20;99.90
21445;DHT22;10883;51.946;20.140;2022-12-29T09:23:04;7.30;99.90
21445;DHT22;10883;51.946;20.140;2022-12-29T09:25:31;7.30;99.90
21445;DHT22;10883;51.946;20.140;2022-12-29T09:27:57;7.20;99.90
21445;DHT22;10883;51.946;20.140;2022-12-29T09:30:24;7.30;99.90
21445;DHT22;10883;51.946;20.140;2022-12-29T09:32:50;7.40;99.90
21445;DHT22;10883;51.946;20.140;2022-12-29T09:35:16;7.50;99.90
21445;DHT22;10883;51.946;20.140;2022-12-29T09:37:43;7.90;99.90
21445;DHT22;10883;51.946;20.140;2022-12-29T09:40:30;8.40;99.90
21445;DHT22;10883;51.946;20.140;2022-12-29T09:45:44;10.20;99.90
21445;DHT22;10883;51.946;20.140;2022-12-29T09:48:18;10.40;99.90
21445;DHT22;10883;51.946;20.140;2022-12-29T09:50:50;9.80;99.90
21445;DHT22;10883;51.946;20.140;2022-12-29T09:53:38;9.20;99.90
21445;DHT22;10883;51.946;20.140;2022-12-29T09:56:15;8.50;99.90
21445;DHT22;10883;51.946;20.140;2022-12-29T09:59:08;8.40;99.90
21445;DHT22;10883;51.946;20.140;2022-12-29T10:04:19;9.60;99.90
21445;DHT22;10883;51.946;20.140;2022-12-29T10:07:01;10.20;99.90
21445;DHT22;10883;51.946;20.140;2022-12-29T10:09:58;10.40;99.90
21445;DHT22;10883;51.946;20.140;2022-12-29T10:18:14;9.80;99.90
21445;DHT22;10883;51.946;20.140;2022-12-29T10:21:37;9.20;99.90
21445;DHT22;10883;51.946;20.140;2022-12-29T10:23:48;8.90;99.90
21445;DHT22;10883;51.946;20.140;2022-12-29T10:26:30;8.50;99.90
21445;DHT22;10883;51.946;20.140;2022-12-29T10:31:47;8.50;99.90
21445;DHT22;10883;51.946;20.140;2022-12-29T10:34:39;8.50;99.90
21445;DHT22;10883;51.946;20.140;2022-12-29T10:39:55;8.30;99.90
21445;DHT22;10883;51.946;20.140;2022-12-29T10:42:35;8.20;99.90
21445;DHT22;10883;51.946;20.140;2022-12-29T10:45:03;8.20;99.90
21445;DHT22;10883;51.946;20.140;2022-12-29T10:47:34;8.30;99.90
21445;DHT22;10883;51.946;20.140;2022-12-29T10:50:02;8.40;99.90
21445;DHT22;10883;51.946;20.140;2022-12-29T10:52:28;8.30;99.90
21445;DHT22;10883;51.946;20.140;2022-12-29T10:58:02;8.30;99.90
21445;DHT22;10883;51.946;20.140;2022-12-29T11:00:31;8.20;99.90
21445;DHT22;10883;51.946;20.140;2022-12-29T11:08:19;8.20;99.90
21445;DHT22;10883;51.946;20.140;2022-12-29T11:10:45;8.20;99.90
21445;DHT22;10883;51.946;20.140;2022-12-29T11:13:24;8.20;99.90
21445;DHT22;10883;51.946;20.140;2022-12-29T11:15:51;8.30;99.90
21445;DHT22;10883;51.946;20.140;2022-12-29T11:20:56;8.40;99.90
21445;DHT22;10883;51.946;20.140;2022-12-29T11:23:26;8.30;99.90
21445;DHT22;10883;51.946;20.140;2022-12-29T11:28:37;8.30;99.90
21445;DHT22;10883;51.946;20.140;2022-12-29T11:31:05;8.30;99.90
21445;DHT22;10883;51.946;20.140;2022-12-29T11:33:34;8.30;99.90
21445;DHT22;10883;51.946;20.140;2022-12-29T11:36:12;8.30;99.90
21445;DHT22;10883;51.946;20.140;2022-12-29T11:38:41;8.30;99.90
21445;DHT22;10883;51.946;20.140;2022-12-29T11:41:13;8.40;99.90
21445;DHT22;10883;51.946;20.140;2022-12-29T11:43:41;8.40;99.90
21445;DHT22;10883;51.946;20.140;2022-12-29T11:46:16;8.40;99.90
21445;DHT22;10883;51.946;20.140;2022-12-29T11:48:44;8.50;99.90
21445;DHT22;10883;51.946;20.140;2022-12-29T11:51:11;8.50;99.90
21445;DHT22;10883;51.946;20.140;2022-12-29T11:53:51;8.60;99.90
21445;DHT22;10883;51.946;20.140;2022-12-29T12:01:50;9.10;99.90
21445;DHT22;10883;51.946;20.140;2022-12-29T12:04:19;9.30;99.90
21445;DHT22;10883;51.946;20.140;2022-12-29T12:07:08;9.30;99.90
21445;DHT22;10883;51.946;20.140;2022-12-29T12:09:45;9.40;99.90
21445;DHT22;10883;51.946;20.140;2022-12-29T12:12:27;9.30;99.90
21445;DHT22;10883;51.946;20.140;2022-12-29T12:14:56;9.10;99.90
21445;DHT22;10883;51.946;20.140;2022-12-29T12:17:30;9.10;99.90
21445;DHT22;10883;51.946;20.140;2022-12-29T12:26:14;9.60;99.90
21445;DHT22;10883;51.946;20.140;2022-12-29T12:28:57;10.10;99.90
21445;DHT22;10883;51.946;20.140;2022-12-29T12:31:54;10.20;99.90
21445;DHT22;10883;51.946;20.140;2022-12-29T12:34:41;10.00;99.90
21445;DHT22;10883;51.946;20.140;2022-12-29T12:43:34;9.50;99.90
21445;DHT22;10883;51.946;20.140;2022-12-29T12:46:17;9.30;99.90
21445;DHT22;10883;51.946;20.140;2022-12-29T12:59:50;9.10;99.90
21445;DHT22;10883;51.946;20.140;2022-12-29T13:13:55;9.00;99.90
21445;DHT22;10883;51.946;20.140;2022-12-29T13:24:50;9.00;99.90
21445;DHT22;10883;51.946;20.140;2022-12-29T13:30:00;9.00;99.90
21445;DHT22;10883;51.946;20.140;2022-12-29T13:35:59;9.10;99.90
21445;DHT22;10883;51.946;20.140;2022-12-29T13:41:40;9.10;99.90
21445;DHT22;10883;51.946;20.140;2022-12-29T13:44:00;9.10;99.90
21445;DHT22;10883;51.946;20.140;2022-12-29T13:46:39;9.20;99.90
21445;DHT22;10883;51.946;20.140;2022-12-29T13:49:14;9.10;99.90
21445;DHT22;10883;51.946;20.140;2022-12-29T13:51:55;9.20;99.90
21445;DHT22;10883;51.946;20.140;2022-12-29T13:54:44;9.20;99.90
21445;DHT22;10883;51.946;20.140;2022-12-29T13:59:47;9.20;99.90
21445;DHT22;10883;51.946;20.140;2022-12-29T14:07:22;9.30;99.90
21445;DHT22;10883;51.946;20.140;2022-12-29T14:09:55;9.30;99.90
21445;DHT22;10883;51.946;20.140;2022-12-29T14:12:31;9.30;99.90
21445;DHT22;10883;51.946;20.140;2022-12-29T14:17:37;9.30;99.90
21445;DHT22;10883;51.946;20.140;2022-12-29T14:20:06;9.30;99.90
21445;DHT22;10883;51.946;20.140;2022-12-29T14:23:00;9.30;99.90
21445;DHT22;10883;51.946;20.140;2022-12-29T14:28:25;9.30;99.90
21445;DHT22;10883;51.946;20.140;2022-12-29T14:30:53;9.30;99.90
21445;DHT22;10883;51.946;20.140;2022-12-29T14:33:21;9.20;99.90
21445;DHT22;10883;51.946;20.140;2022-12-29T14:35:48;9.20;99.90
21445;DHT22;10883;51.946;20.140;2022-12-29T14:38:26;9.20;99.90
21445;DHT22;10883;51.946;20.140;2022-12-29T14:40:52;9.20;99.90
21445;DHT22;10883;51.946;20.140;2022-12-29T14:43:24;9.20;99.90
21445;DHT22;10883;51.946;20.140;2022-12-29T14:46:01;9.10;99.90
21445;DHT22;10883;51.946;20.140;2022-12-29T14:48:29;9.10;99.90
21445;DHT22;10883;51.946;20.140;2022-12-29T14:50:55;9.10;99.90
21445;DHT22;10883;51.946;20.140;2022-12-29T14:56:09;9.10;99.90
21445;DHT22;10883;51.946;20.140;2022-12-29T14:58:42;9.10;99.90
21445;DHT22;10883;51.946;20.140;2022-12-29T15:03:59;9.00;99.90
21445;DHT22;10883;51.946;20.140;2022-12-29T15:06:29;8.90;99.90
21445;DHT22;10883;51.946;20.140;2022-12-29T15:09:06;8.80;99.90
21445;DHT22;10883;51.946;20.140;2022-12-29T15:14:02;8.70;99.90
21445;DHT22;10883;51.946;20.140;2022-12-29T15:16:31;8.60;99.90
21445;DHT22;10883;51.946;20.140;2022-12-29T15:18:58;8.60;99.90
21445;DHT22;10883;51.946;20.140;2022-12-29T15:21:27;8.60;99.90
21445;DHT22;10883;51.946;20.140;2022-12-29T15:23:53;8.50;99.90
21445;DHT22;10883;51.946;20.140;2022-12-29T15:26:20;8.50;99.90
21445;DHT22;10883;51.946;20.140;2022-12-29T15:28:50;8.40;99.90
21445;DHT22;10883;51.946;20.140;2022-12-29T15:31:24;8.40;99.90
21445;DHT22;10883;51.946;20.140;2022-12-29T15:33:53;8.30;99.90
21445;DHT22;10883;51.946;20.140;2022-12-29T15:36:25;8.20;99.90
21445;DHT22;10883;51.946;20.140;2022-12-29T15:38:51;8.20;99.90
21445;DHT22;10883;51.946;20.140;2022-12-29T15:41:35;8.20;99.90
21445;DHT22;10883;51.946;20.140;2022-12-29T15:44:38;8.10;99.90
21445;DHT22;10883;51.946;20.140;2022-12-29T15:47:25;8.10;99.90
21445;DHT22;10883;51.946;20.140;2022-12-29T15:50:02;8.00;99.90
21445;DHT22;10883;51.946;20.140;2022-12-29T15:52:29;8.00;99.90
21445;DHT22;10883;51.946;20.140;2022-12-29T15:54:58;8.10;99.90
21445;DHT22;10883;51.946;20.140;2022-12-29T15:57:26;8.20;99.90
21445;DHT22;10883;51.946;20.140;2022-12-29T15:59:52;8.30;99.90
21445;DHT22;10883;51.946;20.140;2022-12-29T16:02:21;8.30;99.90
21445;DHT22;10883;51.946;20.140;2022-12-29T16:04:48;8.30;99.90
21445;DHT22;10883;51.946;20.140;2022-12-29T16:07:28;8.40;99.90
21445;DHT22;10883;51.946;20.140;2022-12-29T16:09:56;8.40;99.90
21445;DHT22;10883;51.946;20.140;2022-12-29T16:12:30;8.40;99.90
21445;DHT22;10883;51.946;20.140;2022-12-29T16:15:01;8.40;99.90
21445;DHT22;10883;51.946;20.140;2022-12-29T16:17:30;8.40;99.90
21445;DHT22;10883;51.946;20.140;2022-12-29T16:20:00;8.40;99.90
21445;DHT22;10883;51.946;20.140;2022-12-29T16:22:36;8.50;99.90
21445;DHT22;10883;51.946;20.140;2022-12-29T16:25:19;8.50;99.90
21445;DHT22;10883;51.946;20.140;2022-12-29T16:27:45;8.50;99.90
21445;DHT22;10883;51.946;20.140;2022-12-29T16:30:20;8.50;99.90
21445;DHT22;10883;51.946;20.140;2022-12-29T16:32:49;8.50;99.90
21445;DHT22;10883;51.946;20.140;2022-12-29T16:35:23;8.50;99.90
21445;DHT22;10883;51.946;20.140;2022-12-29T16:38:22;8.50;99.90
21445;DHT22;10883;51.946;20.140;2022-12-29T16:40:55;8.50;99.90
21445;DHT22;10883;51.946;20.140;2022-12-29T16:50:45;8.50;99.90
21445;DHT22;10883;51.946;20.140;2022-12-29T16:53:24;8.50;99.90
21445;DHT22;10883;51.946;20.140;2022-12-29T16:55:53;8.40;99.90
21445;DHT22;10883;51.946;20.140;2022-12-29T16:58:25;8.40;99.90
21445;DHT22;10883;51.946;20.140;2022-12-29T17:00:56;8.40;99.90
21445;DHT22;10883;51.946;20.140;2022-12-29T17:03:29;8.40;99.90
21445;DHT22;10883;51.946;20.140;2022-12-29T17:05:56;8.40;99.90
21445;DHT22;10883;51.946;20.140;2022-12-29T17:08:22;8.40;99.90
21445;DHT22;10883;51.946;20.140;2022-12-29T17:10:50;8.30;99.90
21445;DHT22;10883;51.946;20.140;2022-12-29T17:13:35;8.30;99.90
21445;DHT22;10883;51.946;20.140;2022-12-29T17:16:01;8.30;99.90
21445;DHT22;10883;51.946;20.140;2022-12-29T17:18:27;8.20;99.90
21445;DHT22;10883;51.946;20.140;2022-12-29T17:20:53;8.20;99.90
21445;DHT22;10883;51.946;20.140;2022-12-29T17:23:20;8.20;99.90
21445;DHT22;10883;51.946;20.140;2022-12-29T17:25:46;8.20;99.90
21445;DHT22;10883;51.946;20.140;2022-12-29T17:28:31;8.20;99.90
21445;DHT22;10883;51.946;20.140;2022-12-29T17:31:02;8.10;99.90
21445;DHT22;10883;51.946;20.140;2022-12-29T17:33:34;8.20;99.90
21445;DHT22;10883;51.946;20.140;2022-12-29T17:36:00;8.10;99.90
21445;DHT22;10883;51.946;20.140;2022-12-29T17:38:31;8.10;99.90
21445;DHT22;10883;51.946;20.140;2022-12-29T17:40:57;8.00;99.90
21445;DHT22;10883;51.946;20.140;2022-12-29T17:43:23;8.00;99.90
21445;DHT22;10883;51.946;20.140;2022-12-29T17:45:54;8.00;99.90
21445;DHT22;10883;51.946;20.140;2022-12-29T17:48:21;8.00;99.90
21445;DHT22;10883;51.946;20.140;2022-12-29T17:50:49;8.10;99.90
21445;DHT22;10883;51.946;20.140;2022-12-29T17:53:20;8.10;99.90
21445;DHT22;10883;51.946;20.140;2022-12-29T17:55:47;8.20;99.90
21445;DHT22;10883;51.946;20.140;2022-12-29T17:58:23;8.20;99.90
21445;DHT22;10883;51.946;20.140;2022-12-29T18:00:51;8.20;99.90
21445;DHT22;10883;51.946;20.140;2022-12-29T18:03:22;8.10;99.90
21445;DHT22;10883;51.946;20.140;2022-12-29T18:05:48;8.20;99.90
21445;DHT22;10883;51.946;20.140;2022-12-29T18:08:14;8.20;99.90
21445;DHT22;10883;51.946;20.140;2022-12-29T18:10:41;8.20;99.90
21445;DHT22;10883;51.946;20.140;2022-12-29T18:13:31;8.20;99.90
21445;DHT22;10883;51.946;20.140;2022-12-29T18:15:59;8.20;99.90
21445;DHT22;10883;51.946;20.140;2022-12-29T18:18:26;8.10;99.90
21445;DHT22;10883;51.946;20.140;2022-12-29T18:20:54;8.10;99.90
21445;DHT22;10883;51.946;20.140;2022-12-29T18:23:29;8.10;99.90
21445;DHT22;10883;51.946;20.140;2022-12-29T18:26:05;8.10;99.90